Doris Moran — WRU2125 — position and weather

sailwx.info

Track history (hours):
 
Tides and Currents Weather Stations Pressure Air Temp Water Temp Dewpoint Dewpoint Depression Visibility Wind Speed Wind Dir Waves Ship Positions

Doris Moran

Owner: MORAN TOWING CORPORATION, New Canaan, CT. More information available from US FCC via Universal Licensing System and Coast Guard Vessel Documentation Center.

Last reported at 2014-Oct-21 02:09 UTC. Time now 2014-Oct-21 03:46 UTC.
Position N 34°23' W 076°48'.

Length 36 m; draft 5.3 m.

Type: Other ship. MMSI: 366939790.

Date/timePositionNaut miles runAvg speedWind from/ knotsBaromVisibWave heightAir tempDewpointWater temp
2014-Oct-21 02:09N 34°23' W 076°48'6 9.2
2014-Oct-21 01:33N 34°23' W 076°41'329 8.0
2014-Oct-19 08:33N 39°29' W 074°10'9 9.0
2014-Oct-19 07:33N 39°36' W 074°04'9 9.0
2014-Oct-19 06:33N 39°45' W 073°59'9 8.8
2014-Oct-19 05:32N 39°53' W 073°57'36 8.5
2014-Oct-19 01:15N 40°30' W 073°56'6 8.4
2014-Oct-19 00:30N 40°34' W 074°02'6 6.4
2014-Oct-18 23:33N 40°40' W 074°03'6 6.4
2014-Oct-18 22:33N 40°45' W 073°58'5 5.1
2014-Oct-18 21:32N 40°48' W 073°52'13 5.4
2014-Oct-18 19:04N 40°56' W 073°38'3 5.8
2014-Oct-18 18:29N 40°57' W 073°34'5 5.9
2014-Oct-18 17:33N 40°60' W 073°27'6 6.0
2014-Oct-18 16:33N 41°01' W 073°19'5 5.2
2014-Oct-18 15:33N 41°01' W 073°12'5 5.1
2014-Oct-18 14:32N 41°02' W 073°06'5 4.9
2014-Oct-18 13:33N 41°03' W 072°59'5 5.2
2014-Oct-18 12:33N 41°04' W 072°53'6 5.6
2014-Oct-18 11:34N 41°06' W 072°45'6 5.7
2014-Oct-18 10:33N 41°07' W 072°38'7 6.9
2014-Oct-18 09:33N 41°09' W 072°29'10 9.9
2014-Oct-18 08:34N 41°11' W 072°17'9 9.3
2014-Oct-18 07:34N 41°14' W 072°05'9 8.5
2014-Oct-18 06:34N 41°15' W 071°54'8 8.3
2014-Oct-18 05:34N 41°17' W 071°43'8 7.7
2014-Oct-18 04:33N 41°18' W 071°33'8 7.8
2014-Oct-18 03:34N 41°18' W 071°22'8 7.9
2014-Oct-18 02:33N 41°21' W 071°13'8 7.9
2014-Oct-18 01:34N 41°25' W 071°03'8 8.3
2014-Oct-18 00:34N 41°29' W 070°54'9 8.4
2014-Oct-17 23:31N 41°34' W 070°44'41 0.8
2014-Oct-15 22:28N 42°14' W 070°58'0 0.0
2014-Oct-15 14:03N 42°15' W 070°58'3 6.3
2014-Oct-15 13:33N 42°17' W 070°56'10 9.0
2014-Oct-15 12:25N 42°18' W 070°42'1112.2
2014-Oct-15 11:32N 42°10' W 070°33'1312.7
2014-Oct-15 10:32N 41°57' W 070°29'20 8.5
2014-Oct-15 08:14N 41°40' W 070°41'1710.0
2014-Oct-15 06:33N 41°28' W 070°57'1110.9
2014-Oct-15 05:33N 41°22' W 071°10'1110.7
2014-Oct-15 04:33N 41°18' W 071°23'1110.7
2014-Oct-15 03:33N 41°18' W 071°37'1111.2
2014-Oct-15 02:33N 41°15' W 071°51'1212.0
2014-Oct-15 01:33N 41°14' W 072°07'1313.5
2014-Oct-15 00:33N 41°10' W 072°24'1312.8
2014-Oct-14 23:33N 41°06' W 072°41'1211.8
2014-Oct-14 22:33N 41°03' W 072°56'1312.6
2014-Oct-14 21:33N 41°01' W 073°13'1312.6
2014-Oct-14 20:33N 40°59' W 073°29'1313.0
2014-Oct-14 19:33N 40°52' W 073°44'10 9.8
2014-Oct-14 18:32N 40°47' W 073°55'1010.5
2014-Oct-14 17:32N 40°39' W 074°04'3 3.0
2014-Oct-14 16:33N 40°38' W 074°08'0 0.0
2014-Oct-14 15:33N 40°38' W 074°08'0 0.0
2014-Oct-14 14:33N 40°38' W 074°08'0 0.0
2014-Oct-14 13:32N 40°38' W 074°08'0 0.0
2014-Oct-14 12:33N 40°38' W 074°08'1 0.9
2014-Oct-14 11:33N 40°39' W 074°07'3 2.8
2014-Oct-14 10:33N 40°38' W 074°03'3 3.4
2014-Oct-14 09:33N 40°38' W 074°08'0 0.0
2014-Oct-14 08:33N 40°38' W 074°08'0 0.0
2014-Oct-14 07:29N 40°38' W 074°08'0 0.0
2014-Oct-14 06:30N 40°38' W 074°08'0 0.0
2014-Oct-14 05:29N 40°38' W 074°08'2 0.4
2014-Oct-14 01:29N 40°40' W 074°09'2 1.2
2014-Oct-14 00:07N 40°38' W 074°08'0 0.0
2014-Oct-13 23:32N 40°38' W 074°08'6 2.7
2014-Oct-13 21:27N 40°41' W 074°01'3 2.6
2014-Oct-13 20:27N 40°39' W 074°04'3 1.0
2014-Oct-13 17:18N 40°38' W 074°08'0 0.0
2014-Oct-13 16:24N 40°38' W 074°08'0 0.0
2014-Oct-13 14:33N 40°38' W 074°08'0 0.0
2014-Oct-13 13:18N 40°38' W 074°08'0 0.0
2014-Oct-13 12:33N 40°38' W 074°08'2 1.5
2014-Oct-13 11:29N 40°40' W 074°09'1 1.4
2014-Oct-13 10:33N 40°39' W 074°09'1 0.9
2014-Oct-13 09:33N 40°38' W 074°08'0 0.0
2014-Oct-13 08:33N 40°38' W 074°08'0 0.0
2014-Oct-13 07:31N 40°38' W 074°08'0 0.0
2014-Oct-13 00:04N 40°38' W 074°08'2 0.3
2014-Oct-12 17:24N 40°39' W 074°05'1 1.5
2014-Oct-12 16:23N 40°39' W 074°03'0 0.0
2014-Oct-12 15:33N 40°39' W 074°03'0 0.1
2014-Oct-12 14:28N 40°39' W 074°03'0 0.1
2014-Oct-12 13:28N 40°39' W 074°03'0 0.0
2014-Oct-12 12:33N 40°39' W 074°03'4 3.7
2014-Oct-12 11:33N 40°38' W 074°08'0 0.0
2014-Oct-12 10:32N 40°38' W 074°08'0 0.0
2014-Oct-12 09:32N 40°38' W 074°08'0 0.0
2014-Oct-12 08:33N 40°38' W 074°08'0 0.0
2014-Oct-12 07:33N 40°38' W 074°08'0 0.0
2014-Oct-12 06:33N 40°38' W 074°08'0 0.0
2014-Oct-12 05:33N 40°38' W 074°08'0 0.0
2014-Oct-12 04:33N 40°38' W 074°08'0 0.0
2014-Oct-12 03:33N 40°38' W 074°08'0 0.0
2014-Oct-12 02:33N 40°38' W 074°08'1 1.0
2014-Oct-12 01:33N 40°39' W 074°07'0 0.0
2014-Oct-12 00:33N 40°39' W 074°07'0 0.0
2014-Oct-11 23:33N 40°39' W 074°07'0 0.0
2014-Oct-11 22:32N 40°39' W 074°07'1 1.1
2014-Oct-11 21:33N 40°38' W 074°08'0 0.0
2014-Oct-11 20:33N 40°38' W 074°08'0 0.0
2014-Oct-11 19:33N 40°38' W 074°08'0 0.0
2014-Oct-11 18:33N 40°38' W 074°08'0 0.0
2014-Oct-11 17:33N 40°38' W 074°08'0 0.0
2014-Oct-11 16:33N 40°38' W 074°08'2 2.3
2014-Oct-11 15:33N 40°39' W 074°05'4 3.7
2014-Oct-11 14:33N 40°40' W 074°00'2 1.7
2014-Oct-11 13:33N 40°40' W 074°02'0 0.1
2014-Oct-11 12:33N 40°40' W 074°02'0 0.1
2014-Oct-11 11:33N 40°40' W 074°02'0 0.0
2014-Oct-11 10:33N 40°40' W 074°02'0 0.0
2014-Oct-11 09:33N 40°40' W 074°02'0 0.0
2014-Oct-11 08:33N 40°40' W 074°02'0 0.0
2014-Oct-11 07:33N 40°40' W 074°02'0 0.0
2014-Oct-11 06:33N 40°40' W 074°02'0 0.0
2014-Oct-11 05:33N 40°40' W 074°02'0 0.1
2014-Oct-11 04:33N 40°40' W 074°02'0 0.1
2014-Oct-11 03:33N 40°40' W 074°02'0 0.0
2014-Oct-11 02:33N 40°40' W 074°02'  
Track history (hours):
 
Tides and Currents Weather Stations Pressure Air Temp Water Temp Dewpoint Dewpoint Depression Visibility Wind Speed Wind Dir Waves Ship Positions

Doris Moran

Owner: MORAN TOWING CORPORATION, New Canaan, CT. More information available from US FCC via Universal Licensing System and Coast Guard Vessel Documentation Center.

Last reported at 2014-Oct-21 02:09 UTC. Time now 2014-Oct-21 03:46 UTC.
Position N 34°23' W 076°48'.

Length 36 m; draft 5.3 m.

Type: Other ship. MMSI: 366939790.

Date/timePositionNaut miles runAvg speedWind from/ knotsBaromVisibWave heightAir tempDewpointWater temp
2014-Oct-21 02:09N 34°23' W 076°48'6 9.2
2014-Oct-21 01:33N 34°23' W 076°41'329 8.0
2014-Oct-19 08:33N 39°29' W 074°10'9 9.0
2014-Oct-19 07:33N 39°36' W 074°04'9 9.0
2014-Oct-19 06:33N 39°45' W 073°59'9 8.8
2014-Oct-19 05:32N 39°53' W 073°57'36 8.5
2014-Oct-19 01:15N 40°30' W 073°56'6 8.4
2014-Oct-19 00:30N 40°34' W 074°02'6 6.4
2014-Oct-18 23:33N 40°40' W 074°03'6 6.4
2014-Oct-18 22:33N 40°45' W 073°58'5 5.1
2014-Oct-18 21:32N 40°48' W 073°52'13 5.4
2014-Oct-18 19:04N 40°56' W 073°38'3 5.8
2014-Oct-18 18:29N 40°57' W 073°34'5 5.9
2014-Oct-18 17:33N 40°60' W 073°27'6 6.0
2014-Oct-18 16:33N 41°01' W 073°19'5 5.2
2014-Oct-18 15:33N 41°01' W 073°12'5 5.1
2014-Oct-18 14:32N 41°02' W 073°06'5 4.9
2014-Oct-18 13:33N 41°03' W 072°59'5 5.2
2014-Oct-18 12:33N 41°04' W 072°53'6 5.6
2014-Oct-18 11:34N 41°06' W 072°45'6 5.7
2014-Oct-18 10:33N 41°07' W 072°38'7 6.9
2014-Oct-18 09:33N 41°09' W 072°29'10 9.9
2014-Oct-18 08:34N 41°11' W 072°17'9 9.3
2014-Oct-18 07:34N 41°14' W 072°05'9 8.5
2014-Oct-18 06:34N 41°15' W 071°54'8 8.3
2014-Oct-18 05:34N 41°17' W 071°43'8 7.7
2014-Oct-18 04:33N 41°18' W 071°33'8 7.8
2014-Oct-18 03:34N 41°18' W 071°22'8 7.9
2014-Oct-18 02:33N 41°21' W 071°13'8 7.9
2014-Oct-18 01:34N 41°25' W 071°03'8 8.3
2014-Oct-18 00:34N 41°29' W 070°54'9 8.4
2014-Oct-17 23:31N 41°34' W 070°44'41 0.8
2014-Oct-15 22:28N 42°14' W 070°58'0 0.0
2014-Oct-15 14:03N 42°15' W 070°58'3 6.3
2014-Oct-15 13:33N 42°17' W 070°56'10 9.0
2014-Oct-15 12:25N 42°18' W 070°42'1112.2
2014-Oct-15 11:32N 42°10' W 070°33'1312.7
2014-Oct-15 10:32N 41°57' W 070°29'20 8.5
2014-Oct-15 08:14N 41°40' W 070°41'1710.0
2014-Oct-15 06:33N 41°28' W 070°57'1110.9
2014-Oct-15 05:33N 41°22' W 071°10'1110.7
2014-Oct-15 04:33N 41°18' W 071°23'1110.7
2014-Oct-15 03:33N 41°18' W 071°37'1111.2
2014-Oct-15 02:33N 41°15' W 071°51'1212.0
2014-Oct-15 01:33N 41°14' W 072°07'1313.5
2014-Oct-15 00:33N 41°10' W 072°24'1312.8
2014-Oct-14 23:33N 41°06' W 072°41'1211.8
2014-Oct-14 22:33N 41°03' W 072°56'1312.6
2014-Oct-14 21:33N 41°01' W 073°13'1312.6
2014-Oct-14 20:33N 40°59' W 073°29'1313.0
2014-Oct-14 19:33N 40°52' W 073°44'10 9.8
2014-Oct-14 18:32N 40°47' W 073°55'1010.5
2014-Oct-14 17:32N 40°39' W 074°04'3 3.0
2014-Oct-14 16:33N 40°38' W 074°08'0 0.0
2014-Oct-14 15:33N 40°38' W 074°08'0 0.0
2014-Oct-14 14:33N 40°38' W 074°08'0 0.0
2014-Oct-14 13:32N 40°38' W 074°08'0 0.0
2014-Oct-14 12:33N 40°38' W 074°08'1 0.9
2014-Oct-14 11:33N 40°39' W 074°07'3 2.8
2014-Oct-14 10:33N 40°38' W 074°03'3 3.4
2014-Oct-14 09:33N 40°38' W 074°08'0 0.0
2014-Oct-14 08:33N 40°38' W 074°08'0 0.0
2014-Oct-14 07:29N 40°38' W 074°08'0 0.0
2014-Oct-14 06:30N 40°38' W 074°08'0 0.0
2014-Oct-14 05:29N 40°38' W 074°08'2 0.4
2014-Oct-14 01:29N 40°40' W 074°09'2 1.2
2014-Oct-14 00:07N 40°38' W 074°08'0 0.0
2014-Oct-13 23:32N 40°38' W 074°08'6 2.7
2014-Oct-13 21:27N 40°41' W 074°01'3 2.6
2014-Oct-13 20:27N 40°39' W 074°04'3 1.0
2014-Oct-13 17:18N 40°38' W 074°08'0 0.0
2014-Oct-13 16:24N 40°38' W 074°08'0 0.0
2014-Oct-13 14:33N 40°38' W 074°08'0 0.0
2014-Oct-13 13:18N 40°38' W 074°08'0 0.0
2014-Oct-13 12:33N 40°38' W 074°08'2 1.5
2014-Oct-13 11:29N 40°40' W 074°09'1 1.4
2014-Oct-13 10:33N 40°39' W 074°09'1 0.9
2014-Oct-13 09:33N 40°38' W 074°08'0 0.0
2014-Oct-13 08:33N 40°38' W 074°08'0 0.0
2014-Oct-13 07:31N 40°38' W 074°08'0 0.0
2014-Oct-13 00:04N 40°38' W 074°08'2 0.3
2014-Oct-12 17:24N 40°39' W 074°05'1 1.5
2014-Oct-12 16:23N 40°39' W 074°03'0 0.0
2014-Oct-12 15:33N 40°39' W 074°03'0 0.1
2014-Oct-12 14:28N 40°39' W 074°03'0 0.1
2014-Oct-12 13:28N 40°39' W 074°03'0 0.0
2014-Oct-12 12:33N 40°39' W 074°03'4 3.7
2014-Oct-12 11:33N 40°38' W 074°08'0 0.0
2014-Oct-12 10:32N 40°38' W 074°08'0 0.0
2014-Oct-12 09:32N 40°38' W 074°08'0 0.0
2014-Oct-12 08:33N 40°38' W 074°08'0 0.0
2014-Oct-12 07:33N 40°38' W 074°08'0 0.0
2014-Oct-12 06:33N 40°38' W 074°08'0 0.0
2014-Oct-12 05:33N 40°38' W 074°08'0 0.0
2014-Oct-12 04:33N 40°38' W 074°08'0 0.0
2014-Oct-12 03:33N 40°38' W 074°08'0 0.0
2014-Oct-12 02:33N 40°38' W 074°08'1 1.0
2014-Oct-12 01:33N 40°39' W 074°07'0 0.0
2014-Oct-12 00:33N 40°39' W 074°07'0 0.0
2014-Oct-11 23:33N 40°39' W 074°07'0 0.0
2014-Oct-11 22:32N 40°39' W 074°07'1 1.1
2014-Oct-11 21:33N 40°38' W 074°08'0 0.0
2014-Oct-11 20:33N 40°38' W 074°08'0 0.0
2014-Oct-11 19:33N 40°38' W 074°08'0 0.0
2014-Oct-11 18:33N 40°38' W 074°08'0 0.0
2014-Oct-11 17:33N 40°38' W 074°08'0 0.0
2014-Oct-11 16:33N 40°38' W 074°08'2 2.3
2014-Oct-11 15:33N 40°39' W 074°05'4 3.7
2014-Oct-11 14:33N 40°40' W 074°00'2 1.7
2014-Oct-11 13:33N 40°40' W 074°02'0 0.1
2014-Oct-11 12:33N 40°40' W 074°02'0 0.1
2014-Oct-11 11:33N 40°40' W 074°02'0 0.0
2014-Oct-11 10:33N 40°40' W 074°02'0 0.0
2014-Oct-11 09:33N 40°40' W 074°02'0 0.0
2014-Oct-11 08:33N 40°40' W 074°02'0 0.0
2014-Oct-11 07:33N 40°40' W 074°02'0 0.0
2014-Oct-11 06:33N 40°40' W 074°02'0 0.0
2014-Oct-11 05:33N 40°40' W 074°02'0 0.1
2014-Oct-11 04:33N 40°40' W 074°02'0 0.1
2014-Oct-11 03:33N 40°40' W 074°02'0 0.0
2014-Oct-11 02:33N 40°40' W 074°02'  

Dump ship's entire track history